createdAt,value
2018-10-02T00:00:24.923Z,6.23
2018-10-02T00:02:54.165Z,6.22
2018-10-02T00:05:23.348Z,6.14
2018-10-02T00:07:52.593Z,6.12
2018-10-02T00:10:21.794Z,6.11
2018-10-02T00:12:56.193Z,6.04
2018-10-02T00:15:25.381Z,6.03
2018-10-02T00:17:54.594Z,6.01
2018-10-02T00:20:23.932Z,5.96
2018-10-02T00:22:53.128Z,5.91
2018-10-02T00:25:22.270Z,5.88
2018-10-02T00:27:51.482Z,5.87
2018-10-02T00:30:21.721Z,5.79
2018-10-02T00:32:50.859Z,5.83
2018-10-02T00:35:19.948Z,5.82
2018-10-02T00:37:49.211Z,5.82
2018-10-02T00:40:18.343Z,5.77
2018-10-02T00:42:47.641Z,5.73
2018-10-02T00:45:16.807Z,5.70
2018-10-02T00:47:45.910Z,5.70
2018-10-02T00:50:15.833Z,5.67
2018-10-02T00:52:44.984Z,5.63
2018-10-02T00:55:14.104Z,5.63
2018-10-02T00:57:43.213Z,5.61
2018-10-02T01:00:12.371Z,5.57
2018-10-02T01:02:41.664Z,5.57
2018-10-02T01:05:11.219Z,5.55
2018-10-02T01:07:44.085Z,5.53
2018-10-02T01:10:13.280Z,5.48
2018-10-02T01:12:42.474Z,5.43
2018-10-02T01:15:11.766Z,5.44
2018-10-02T01:17:40.953Z,5.43
2018-10-02T01:20:10.592Z,5.41
2018-10-02T01:22:39.792Z,5.40
2018-10-02T01:25:09.002Z,5.37
2018-10-02T01:27:38.204Z,5.41
2018-10-02T01:30:07.614Z,5.40
2018-10-02T01:32:36.805Z,5.36
2018-10-02T01:35:06.126Z,5.36
2018-10-02T01:37:35.347Z,5.39
2018-10-02T01:40:04.544Z,5.40
2018-10-02T01:42:33.789Z,5.41
2018-10-02T01:45:03.093Z,5.38
2018-10-02T01:47:32.567Z,5.40
2018-10-02T01:50:01.823Z,5.39
2018-10-02T01:52:31.036Z,5.40
2018-10-02T01:55:00.172Z,5.41
2018-10-02T01:57:29.379Z,5.43
2018-10-02T01:59:58.613Z,5.44
2018-10-02T02:02:27.954Z,5.41
2018-10-02T02:04:57.200Z,5.42
2018-10-02T02:07:26.433Z,5.42
2018-10-02T02:09:55.644Z,5.46
2018-10-02T02:12:24.856Z,5.46
2018-10-02T02:14:54.141Z,5.46
2018-10-02T02:17:23.290Z,5.52
2018-10-02T02:19:52.544Z,5.52
2018-10-02T02:22:21.741Z,5.54
2018-10-02T02:24:50.912Z,5.51
2018-10-02T02:27:20.125Z,5.54
2018-10-02T02:29:49.799Z,5.56
2018-10-02T02:32:19.105Z,5.50
2018-10-02T02:34:48.337Z,5.53
2018-10-02T02:37:17.630Z,5.55
2018-10-02T02:39:46.844Z,5.55
2018-10-02T02:42:16.249Z,5.60
2018-10-02T02:44:45.442Z,5.64
2018-10-02T02:47:19.976Z,5.61
2018-10-02T02:49:54.396Z,5.63
2018-10-02T02:52:25.249Z,5.65
2018-10-02T02:54:54.400Z,5.67
2018-10-02T02:57:23.551Z,5.67
2018-10-02T02:59:52.680Z,5.73
2018-10-02T03:02:21.901Z,5.70
2018-10-02T03:04:51.102Z,5.75
2018-10-02T03:07:20.303Z,5.76
2018-10-02T03:09:49.711Z,5.82
2018-10-02T03:12:18.904Z,5.77
2018-10-02T03:14:48.139Z,5.82
2018-10-02T03:17:17.298Z,5.83
2018-10-02T03:19:46.616Z,5.90
2018-10-02T03:22:16.886Z,5.92
2018-10-02T03:24:46.207Z,5.88
2018-10-02T03:27:15.493Z,5.92
2018-10-02T03:29:44.712Z,5.91
2018-10-02T03:32:13.936Z,5.97
2018-10-02T03:34:43.162Z,5.98
2018-10-02T03:37:12.355Z,6.00
2018-10-02T03:39:41.595Z,5.98
2018-10-02T03:42:10.763Z,6.00
2018-10-02T03:44:39.928Z,5.98
2018-10-02T03:47:09.097Z,5.99
2018-10-02T03:49:38.319Z,6.03
2018-10-02T03:52:07.571Z,6.03
2018-10-02T03:54:36.734Z,6.04
2018-10-02T03:57:06.467Z,6.03
2018-10-02T03:59:35.653Z,6.05
2018-10-02T04:02:04.957Z,6.12
2018-10-02T04:04:34.131Z,6.11
2018-10-02T04:07:03.325Z,6.10
2018-10-02T04:09:32.548Z,6.11
2018-10-02T04:12:01.755Z,6.09
2018-10-02T04:14:31.049Z,6.10
2018-10-02T04:17:00.245Z,6.13
2018-10-02T04:19:29.503Z,6.15
2018-10-02T04:21:58.725Z,6.17
2018-10-02T04:24:27.977Z,6.17
2018-10-02T04:26:57.122Z,6.15
2018-10-02T04:29:26.956Z,6.18
2018-10-02T04:31:56.230Z,6.20
2018-10-02T04:34:25.361Z,6.21
2018-10-02T04:36:54.589Z,6.22
2018-10-02T04:39:23.901Z,6.21
2018-10-02T04:41:53.029Z,6.24
2018-10-02T04:44:22.227Z,6.25
2018-10-02T04:46:51.489Z,6.28
2018-10-02T04:49:20.702Z,6.28
2018-10-02T04:51:49.945Z,6.30
2018-10-02T04:54:19.259Z,6.29
2018-10-02T04:56:48.547Z,6.32
2018-10-02T04:59:17.944Z,6.35
2018-10-02T05:01:47.155Z,6.35
2018-10-02T05:04:16.354Z,6.38
2018-10-02T05:06:45.618Z,6.37
2018-10-02T05:09:14.804Z,6.36
2018-10-02T05:11:43.982Z,6.38
2018-10-02T05:14:13.254Z,6.40
2018-10-02T05:16:42.390Z,6.39
2018-10-02T05:19:11.580Z,6.40
2018-10-02T05:21:40.858Z,6.40
2018-10-02T05:24:10.100Z,6.39
2018-10-02T05:26:39.335Z,6.38
2018-10-02T05:29:08.555Z,6.37
2018-10-02T05:31:37.810Z,6.40
2018-10-02T05:34:07.188Z,6.37
2018-10-02T05:36:36.413Z,6.35
2018-10-02T05:39:07.451Z,6.35
2018-10-02T05:41:36.664Z,6.35
2018-10-02T05:44:05.862Z,6.37
2018-10-02T05:46:35.090Z,6.39
2018-10-02T05:49:04.289Z,6.36
2018-10-02T05:51:33.474Z,6.37
2018-10-02T05:54:02.786Z,6.37
2018-10-02T05:56:31.968Z,6.37
2018-10-02T05:59:01.186Z,6.36
2018-10-02T06:01:30.457Z,6.37
2018-10-02T06:03:59.623Z,6.38
2018-10-02T06:06:28.831Z,6.40
2018-10-02T06:08:58.827Z,6.40
2018-10-02T06:11:28.157Z,6.40
2018-10-02T06:13:57.288Z,6.41
2018-10-02T06:16:26.566Z,6.42
2018-10-02T06:18:56.079Z,6.43
2018-10-02T06:21:25.288Z,6.44
2018-10-02T06:23:54.591Z,6.42
2018-10-02T06:26:23.833Z,6.49
2018-10-02T06:28:53.032Z,6.53
2018-10-02T06:31:22.210Z,6.51
2018-10-02T06:33:51.560Z,6.52
2018-10-02T06:36:21.705Z,6.50
2018-10-02T06:38:51.985Z,6.53
2018-10-02T06:41:21.257Z,6.55
2018-10-02T06:43:50.566Z,6.58
2018-10-02T06:46:19.728Z,6.59
2018-10-02T06:48:48.980Z,6.64
2018-10-02T06:51:18.228Z,6.63
2018-10-02T06:53:47.767Z,6.64
2018-10-02T06:56:16.932Z,6.64
2018-10-02T06:58:46.529Z,6.68
2018-10-02T07:01:15.702Z,6.71
2018-10-02T07:03:44.882Z,6.84
2018-10-02T07:06:14.071Z,6.92
2018-10-02T07:08:43.339Z,6.93
2018-10-02T07:11:12.371Z,6.90
2018-10-02T07:13:41.540Z,6.91
2018-10-02T07:16:10.714Z,6.96
2018-10-02T07:18:39.875Z,6.99
2018-10-02T07:21:09.045Z,6.98
2018-10-02T07:23:38.259Z,7.01
2018-10-02T07:26:07.545Z,6.99
2018-10-02T07:28:37.276Z,6.98
2018-10-02T07:31:07.288Z,6.98
2018-10-02T07:33:36.443Z,7.02
2018-10-02T07:36:05.596Z,7.02
2018-10-02T07:38:34.815Z,7.09
2018-10-02T07:41:04.020Z,7.11
2018-10-02T07:43:33.206Z,7.11
2018-10-02T07:46:02.381Z,7.17
2018-10-02T07:48:31.548Z,7.21
2018-10-02T07:51:00.766Z,7.23
2018-10-02T07:53:30.983Z,7.24
2018-10-02T07:56:00.138Z,7.20
2018-10-02T07:58:29.346Z,7.21
2018-10-02T08:00:58.516Z,7.25
2018-10-02T08:03:27.668Z,7.25
2018-10-02T08:05:56.868Z,7.26
2018-10-02T08:08:25.985Z,7.25
2018-10-02T08:10:55.137Z,7.22
2018-10-02T08:13:24.566Z,7.31
2018-10-02T08:15:53.720Z,7.27
2018-10-02T08:18:22.870Z,7.32
2018-10-02T08:20:52.085Z,7.31
2018-10-02T08:23:21.273Z,7.37
2018-10-02T08:25:51.216Z,7.37
2018-10-02T08:28:21.587Z,7.37
2018-10-02T08:30:51.369Z,7.37
2018-10-02T08:33:20.493Z,7.42
2018-10-02T08:35:49.704Z,7.42
2018-10-02T08:38:19.855Z,7.41
2018-10-02T08:40:49.130Z,7.39
2018-10-02T08:43:18.422Z,7.39
2018-10-02T08:45:47.555Z,7.42
2018-10-02T08:48:16.688Z,7.38
2018-10-02T08:50:45.811Z,7.40
2018-10-02T08:53:15.128Z,7.41
2018-10-02T08:55:44.284Z,7.41
2018-10-02T08:58:13.407Z,7.40
2018-10-02T09:00:42.571Z,7.42
2018-10-02T09:03:11.739Z,7.42
2018-10-02T09:05:40.839Z,7.41
2018-10-02T09:08:10.083Z,7.43
2018-10-02T09:10:39.338Z,7.46
2018-10-02T09:13:08.588Z,7.49
2018-10-02T09:15:37.909Z,7.49
2018-10-02T09:18:07.125Z,7.52
2018-10-02T09:20:36.454Z,7.52
2018-10-02T09:23:05.700Z,7.52
2018-10-02T09:25:34.883Z,7.53
2018-10-02T09:28:04.140Z,7.52
2018-10-02T09:30:38.672Z,7.60
2018-10-02T09:33:13.490Z,7.56
2018-10-02T09:35:47.874Z,7.61
2018-10-02T09:38:22.266Z,7.69
2018-10-02T09:40:56.642Z,7.74
2018-10-02T09:43:59.139Z,7.68
2018-10-02T09:46:29.073Z,7.71
2018-10-02T09:48:58.410Z,7.74
2018-10-02T09:51:28.547Z,7.71
2018-10-02T09:53:57.753Z,7.73
2018-10-02T09:56:31.172Z,7.77
2018-10-02T09:59:00.368Z,7.83
2018-10-02T10:01:34.750Z,7.83
2018-10-02T10:04:04.005Z,7.82
2018-10-02T10:06:33.264Z,7.81
2018-10-02T10:09:02.510Z,7.83
2018-10-02T10:11:31.754Z,7.83
2018-10-02T10:14:00.957Z,7.88
2018-10-02T10:16:30.344Z,7.85
2018-10-02T10:18:59.516Z,7.88
2018-10-02T10:21:28.673Z,7.86
2018-10-02T10:23:57.884Z,7.86
2018-10-02T10:26:27.119Z,7.93
2018-10-02T10:28:56.327Z,7.91
2018-10-02T10:31:25.586Z,7.94
2018-10-02T10:33:54.794Z,7.97
2018-10-02T10:36:23.979Z,7.97
2018-10-02T10:38:53.165Z,7.98
2018-10-02T10:41:22.365Z,8.01
2018-10-02T10:43:51.591Z,8.06
2018-10-02T10:46:20.841Z,8.06
2018-10-02T10:48:50.092Z,8.07
2018-10-02T10:51:19.323Z,8.08
2018-10-02T10:53:48.652Z,8.09
2018-10-02T10:56:17.912Z,8.11
2018-10-02T10:58:47.172Z,8.13
2018-10-02T11:01:16.377Z,8.16
2018-10-02T11:03:45.576Z,8.21
2018-10-02T11:06:14.793Z,8.22
2018-10-02T11:08:44.060Z,8.22
2018-10-02T11:11:13.346Z,8.23
2018-10-02T11:13:42.715Z,8.24
2018-10-02T11:16:11.972Z,8.26
2018-10-02T11:18:41.105Z,8.30
2018-10-02T11:21:10.348Z,8.36
2018-10-02T11:23:39.829Z,8.32
2018-10-02T11:26:09.940Z,8.35
2018-10-02T11:28:39.177Z,8.41
2018-10-02T11:31:08.669Z,8.41
2018-10-02T11:33:37.932Z,8.43
2018-10-02T11:36:07.101Z,8.44
2018-10-02T11:38:36.764Z,8.48
2018-10-02T11:41:06.166Z,8.51
2018-10-02T11:43:35.361Z,8.51
2018-10-02T11:46:04.585Z,8.54
2018-10-02T11:48:33.774Z,8.58
2018-10-02T11:51:03.032Z,8.59
2018-10-02T11:53:32.173Z,8.61
2018-10-02T11:56:01.431Z,8.66
2018-10-02T11:58:30.840Z,8.68
2018-10-02T12:01:00.215Z,8.72
2018-10-02T12:03:29.362Z,8.77
2018-10-02T12:05:58.730Z,8.75
2018-10-02T12:08:27.959Z,8.77
2018-10-02T12:10:57.101Z,8.80
2018-10-02T12:13:26.370Z,8.84
2018-10-02T12:15:55.517Z,8.83
2018-10-02T12:18:24.700Z,8.86
2018-10-02T12:20:54.079Z,8.86
2018-10-02T12:23:23.254Z,8.90
2018-10-02T12:25:52.440Z,8.94
2018-10-02T12:28:21.536Z,8.95
2018-10-02T12:30:50.689Z,8.97
2018-10-02T12:33:19.905Z,9.00
2018-10-02T12:35:49.048Z,9.04
2018-10-02T12:38:18.213Z,9.05
2018-10-02T12:40:47.372Z,9.15
2018-10-02T12:43:16.544Z,9.20
2018-10-02T12:45:45.697Z,9.24
2018-10-02T12:48:14.800Z,9.32
2018-10-02T12:50:44.947Z,9.37
2018-10-02T12:53:14.070Z,9.43
2018-10-02T12:55:43.189Z,9.49
2018-10-02T12:58:12.385Z,9.54
2018-10-02T13:00:41.604Z,9.65
2018-10-02T13:03:10.792Z,9.68
2018-10-02T13:05:39.980Z,9.74
2018-10-02T13:08:09.212Z,9.83
2018-10-02T13:10:38.399Z,9.94
2018-10-02T13:13:07.916Z,9.96
2018-10-02T13:15:37.106Z,10.00
2018-10-02T13:18:06.296Z,10.00
2018-10-02T13:20:35.646Z,10.02
2018-10-02T13:23:04.848Z,10.02
2018-10-02T13:25:34.058Z,10.05
2018-10-02T13:28:03.214Z,10.08
2018-10-02T13:30:32.410Z,10.15
2018-10-02T13:33:01.659Z,10.15
2018-10-02T13:35:30.912Z,10.20
2018-10-02T13:38:00.281Z,10.24
2018-10-02T13:40:29.568Z,10.27
2018-10-02T13:42:58.734Z,10.28
2018-10-02T13:45:27.972Z,10.30
2018-10-02T13:47:57.116Z,10.31
2018-10-02T13:50:26.246Z,10.31
2018-10-02T13:52:55.480Z,10.34
2018-10-02T13:55:24.677Z,10.32
2018-10-02T13:57:53.843Z,10.31
2018-10-02T14:00:23.040Z,10.33
2018-10-02T14:02:52.244Z,10.35
2018-10-02T14:05:21.373Z,10.37
2018-10-02T14:07:50.535Z,10.40
2018-10-02T14:10:19.716Z,10.45
2018-10-02T14:12:48.843Z,10.46
2018-10-02T14:15:17.989Z,10.46
2018-10-02T14:17:47.161Z,10.47
2018-10-02T14:20:16.296Z,10.49
2018-10-02T14:22:45.450Z,10.47
2018-10-02T14:25:14.808Z,10.48
2018-10-02T14:27:43.977Z,10.50
2018-10-02T14:30:13.144Z,10.51
2018-10-02T14:32:42.581Z,10.49
2018-10-02T14:35:11.698Z,10.51
2018-10-02T14:37:40.854Z,10.52
2018-10-02T14:40:10.078Z,10.55
2018-10-02T14:42:39.266Z,10.57
2018-10-02T14:45:08.498Z,10.63
2018-10-02T14:47:37.852Z,10.63
2018-10-02T14:50:07.012Z,10.70
2018-10-02T14:52:36.157Z,10.81
2018-10-02T14:55:05.349Z,10.79
2018-10-02T14:57:34.443Z,10.84
2018-10-02T15:00:03.811Z,10.81
2018-10-02T15:02:32.983Z,10.84
2018-10-02T15:05:02.148Z,10.83
2018-10-02T15:07:31.285Z,10.83
2018-10-02T15:10:00.522Z,10.89
2018-10-02T15:12:29.656Z,10.89
2018-10-02T15:14:58.819Z,10.92
2018-10-02T15:17:27.946Z,10.95
2018-10-02T15:19:57.069Z,10.98
2018-10-02T15:22:26.316Z,11.02
2018-10-02T15:24:55.472Z,11.03
2018-10-02T15:27:24.628Z,11.04
2018-10-02T15:34:54.254Z,11.08
2018-10-02T15:37:23.599Z,11.11
2018-10-02T15:39:52.815Z,11.16
2018-10-02T15:42:22.072Z,11.15
2018-10-02T15:44:51.324Z,11.14
2018-10-02T15:47:20.453Z,11.20
2018-10-02T15:49:49.678Z,11.17
2018-10-02T15:52:18.860Z,11.16
2018-10-02T15:54:48.099Z,11.14
2018-10-02T15:57:17.237Z,11.15
2018-10-02T15:59:47.020Z,11.17
2018-10-02T16:02:16.215Z,11.21
2018-10-02T16:04:45.420Z,11.18
2018-10-02T16:07:14.628Z,11.18
2018-10-02T16:09:43.780Z,11.17
2018-10-02T16:12:12.921Z,11.17
2018-10-02T16:14:42.031Z,11.17
2018-10-02T16:17:11.344Z,11.15
2018-10-02T16:19:40.500Z,11.17
2018-10-02T16:22:09.717Z,11.20
2018-10-02T16:24:38.824Z,11.21
2018-10-02T16:27:07.979Z,11.20
2018-10-02T16:29:37.641Z,11.20
2018-10-02T16:32:07.007Z,11.20
2018-10-02T16:34:48.978Z,11.19
2018-10-02T16:37:05.332Z,11.15
2018-10-02T16:39:34.494Z,11.14
2018-10-02T16:42:03.818Z,11.12
2018-10-02T16:44:33.056Z,11.11
2018-10-02T16:47:02.226Z,11.10
2018-10-02T16:49:31.464Z,11.04
2018-10-02T16:52:00.772Z,11.00
2018-10-02T16:54:30.228Z,10.97
2018-10-02T16:56:59.606Z,10.94
2018-10-02T16:59:28.848Z,10.96
2018-10-02T17:01:58.112Z,10.97
2018-10-02T17:04:30.672Z,10.92
2018-10-02T17:07:00.337Z,10.88
2018-10-02T17:09:29.738Z,10.94
2018-10-02T17:12:01.972Z,10.88
2018-10-02T17:14:31.355Z,10.91
2018-10-02T17:17:00.473Z,10.93
2018-10-02T17:19:29.652Z,10.92
2018-10-02T17:21:58.921Z,10.88
2018-10-02T17:24:28.043Z,10.89
2018-10-02T17:26:57.313Z,10.86
2018-10-02T17:29:26.421Z,10.84
2018-10-02T17:31:55.512Z,10.84
2018-10-02T17:34:24.645Z,10.82
2018-10-02T17:41:57.299Z,10.74
2018-10-02T17:44:26.561Z,10.72
2018-10-02T17:46:55.815Z,10.68
2018-10-02T17:49:25.072Z,10.69
2018-10-02T17:51:54.310Z,10.65
2018-10-02T17:54:23.611Z,10.62
2018-10-02T17:56:52.692Z,10.61
2018-10-02T17:59:21.919Z,10.56
2018-10-02T18:01:51.028Z,10.55
2018-10-02T18:04:20.155Z,10.52
2018-10-02T18:06:49.453Z,10.48
2018-10-02T18:09:18.674Z,10.50
2018-10-02T18:11:47.841Z,10.53
2018-10-02T18:14:16.962Z,10.52
2018-10-02T18:16:46.121Z,10.52
2018-10-02T18:19:15.297Z,10.49
2018-10-02T18:21:44.536Z,10.52
2018-10-02T18:24:13.695Z,10.54
2018-10-02T18:26:42.853Z,10.59
2018-10-02T18:29:11.987Z,10.59
2018-10-02T18:31:41.165Z,10.57
2018-10-02T18:34:10.309Z,10.52
2018-10-02T18:36:39.444Z,10.54
2018-10-02T18:39:09.093Z,10.54
2018-10-02T18:41:38.291Z,10.57
2018-10-02T18:44:07.873Z,10.53
2018-10-02T18:46:37.404Z,10.48
2018-10-02T18:49:06.623Z,10.47
2018-10-02T18:51:35.776Z,10.48
2018-10-02T18:54:04.981Z,10.51
2018-10-02T18:56:34.222Z,10.51
2018-10-02T18:59:03.338Z,10.50
2018-10-02T19:01:32.552Z,10.49
2018-10-02T19:04:01.733Z,10.48
2018-10-02T19:06:30.903Z,10.50
2018-10-02T19:09:05.421Z,10.49
2018-10-02T19:11:39.739Z,10.50
2018-10-02T19:14:08.966Z,10.49
2018-10-02T19:16:38.083Z,10.50
2018-10-02T19:19:11.468Z,10.51
2018-10-02T19:21:40.701Z,10.48
2018-10-02T19:24:09.837Z,10.42
2018-10-02T19:26:39.157Z,10.40
2018-10-02T19:29:08.409Z,10.40
2018-10-02T19:31:42.996Z,10.34
2018-10-02T19:34:12.424Z,10.27
2018-10-02T19:36:41.561Z,10.23
2018-10-02T19:39:14.170Z,10.24
2018-10-02T19:41:43.347Z,10.24
2018-10-02T19:44:12.494Z,10.25
2018-10-02T19:46:49.425Z,10.25
2018-10-02T19:49:19.851Z,10.25
2018-10-02T19:51:54.368Z,10.27
2018-10-02T19:54:24.679Z,10.29
2018-10-02T19:56:54.013Z,10.28
2018-10-02T19:59:24.339Z,10.26
2018-10-02T20:01:53.789Z,10.25
2018-10-02T20:04:23.007Z,10.22
2018-10-02T20:06:52.322Z,10.21
2018-10-02T20:09:21.488Z,10.18
2018-10-02T20:11:50.704Z,10.23
2018-10-02T20:14:19.915Z,10.21
2018-10-02T20:16:50.094Z,10.24
2018-10-02T20:19:19.351Z,10.29
2018-10-02T20:21:48.644Z,10.32
2018-10-02T20:24:17.821Z,10.31
2018-10-02T20:26:47.067Z,10.27
2018-10-02T20:29:16.337Z,10.29
2018-10-02T20:31:48.249Z,10.30
2018-10-02T20:34:17.349Z,10.23
2018-10-02T20:36:46.471Z,10.18
2018-10-02T20:39:15.608Z,10.10
2018-10-02T20:41:44.793Z,10.14
2018-10-02T20:44:14.009Z,10.11
2018-10-02T20:46:43.213Z,10.09
2018-10-02T20:49:12.455Z,10.07
2018-10-02T20:51:41.528Z,10.06
2018-10-02T20:54:10.635Z,10.09
2018-10-02T20:56:39.761Z,10.10
2018-10-02T20:59:08.965Z,10.22
2018-10-02T21:01:38.094Z,10.24
2018-10-02T21:04:07.347Z,10.25
2018-10-02T21:06:36.473Z,10.26
2018-10-02T21:09:07.188Z,10.26
2018-10-02T21:11:36.352Z,10.24
2018-10-02T21:14:05.485Z,10.23
2018-10-02T21:16:34.707Z,10.23
2018-10-02T21:19:03.844Z,10.22
2018-10-02T21:21:33.027Z,10.18
2018-10-02T21:24:02.174Z,10.14
2018-10-02T21:26:31.259Z,10.07
2018-10-02T21:29:00.447Z,10.08
2018-10-02T21:31:29.644Z,10.05
2018-10-02T21:33:58.757Z,10.00
2018-10-02T21:36:27.892Z,9.92
2018-10-02T21:38:57.049Z,9.89
2018-10-02T21:41:26.197Z,9.91
2018-10-02T21:43:55.361Z,9.96
2018-10-02T21:46:24.529Z,9.91
2018-10-02T21:48:53.649Z,9.98
2018-10-02T21:51:22.869Z,9.96
2018-10-02T21:53:52.044Z,9.86
2018-10-02T21:56:21.158Z,9.82
2018-10-02T21:58:50.364Z,9.86
2018-10-02T22:01:19.562Z,9.87
2018-10-02T22:03:48.876Z,9.89
2018-10-02T22:06:18.146Z,9.86
2018-10-02T22:08:47.272Z,9.82
2018-10-02T22:11:16.449Z,9.82
2018-10-02T22:13:45.747Z,9.82
2018-10-02T22:16:14.942Z,9.74
2018-10-02T22:18:44.040Z,9.77
2018-10-02T22:21:13.182Z,9.77
2018-10-02T22:23:42.280Z,9.74
2018-10-02T22:26:11.448Z,9.69
2018-10-02T22:28:40.582Z,9.64
2018-10-02T22:31:09.761Z,9.66
2018-10-02T22:33:38.919Z,9.71
2018-10-02T22:36:08.035Z,9.73
2018-10-02T22:38:37.183Z,9.76
2018-10-02T22:41:06.374Z,9.76
2018-10-02T22:43:35.527Z,9.73
2018-10-02T22:46:04.691Z,9.70
2018-10-02T22:48:33.862Z,9.69
2018-10-02T22:51:02.959Z,9.70
2018-10-02T22:53:32.593Z,9.72
2018-10-02T22:56:01.745Z,9.77
2018-10-02T22:58:30.891Z,9.79
2018-10-02T23:00:59.973Z,9.80
2018-10-02T23:03:29.082Z,9.82
2018-10-02T23:05:58.191Z,9.84
2018-10-02T23:08:27.339Z,9.86
2018-10-02T23:10:56.523Z,9.84
2018-10-02T23:13:25.650Z,9.86
2018-10-02T23:15:54.808Z,9.85
2018-10-02T23:18:23.950Z,9.83
2018-10-02T23:20:53.055Z,9.80
2018-10-02T23:23:22.250Z,9.81
2018-10-02T23:25:51.382Z,9.77
2018-10-02T23:28:20.620Z,9.82
2018-10-02T23:30:49.840Z,9.76
2018-10-02T23:33:19.058Z,9.75
2018-10-02T23:35:48.204Z,9.67
2018-10-02T23:38:17.409Z,9.59
2018-10-02T23:40:46.500Z,9.56
2018-10-02T23:43:15.656Z,9.54
2018-10-02T23:45:44.793Z,9.48
2018-10-02T23:48:13.938Z,9.43
2018-10-02T23:50:43.185Z,9.37
2018-10-02T23:53:12.332Z,9.34
2018-10-02T23:55:41.493Z,9.32
2018-10-02T23:58:10.649Z,9.24
